createdAt,value
2022-08-07T00:02:36.132Z,17.94
2022-08-07T00:04:09.643Z,17.90
2022-08-07T00:06:51.228Z,17.86
2022-08-07T00:09:22.768Z,17.82
2022-08-07T00:11:55.982Z,17.79
2022-08-07T00:14:31.027Z,17.76
2022-08-07T00:17:01.966Z,17.75
2022-08-07T00:20:00.012Z,17.73
2022-08-07T00:22:24.481Z,17.70
2022-08-07T00:25:05.758Z,17.67
2022-08-07T00:27:53.512Z,17.63
2022-08-07T00:30:27.670Z,17.59
2022-08-07T00:32:58.268Z,17.56
2022-08-07T00:35:30.533Z,17.54
2022-08-07T00:37:59.605Z,17.52
2022-08-07T00:40:40.000Z,17.51
2022-08-07T00:44:01.374Z,17.47
2022-08-07T00:45:59.852Z,17.43
2022-08-07T00:48:31.975Z,17.39
2022-08-07T00:51:03.641Z,17.37
2022-08-07T00:53:38.903Z,17.33
2022-08-07T00:56:19.434Z,17.31
2022-08-07T00:58:49.677Z,17.30
2022-08-07T01:01:20.339Z,17.25
2022-08-07T01:03:56.617Z,17.22
2022-08-07T01:06:31.747Z,17.19
2022-08-07T01:09:02.861Z,17.17
2022-08-07T01:12:24.025Z,17.16
2022-08-07T01:14:28.882Z,17.12
2022-08-07T01:17:00.109Z,17.08
2022-08-07T01:19:33.415Z,17.04
2022-08-07T01:22:08.810Z,17.02
2022-08-07T01:24:45.815Z,16.99
2022-08-07T01:27:17.716Z,16.96
2022-08-07T01:29:50.615Z,16.93
2022-08-07T01:32:22.429Z,16.91
2022-08-07T01:34:53.297Z,16.87
2022-08-07T01:37:23.474Z,16.84
2022-08-07T01:39:59.077Z,16.80
2022-08-07T01:42:37.935Z,16.77
2022-08-07T01:45:17.953Z,16.71
2022-08-07T01:48:20.459Z,16.67
2022-08-07T01:50:43.033Z,16.61
2022-08-07T01:53:20.813Z,16.58
2022-08-07T01:56:02.584Z,16.52
2022-08-07T01:58:41.077Z,16.50
2022-08-07T02:01:58.758Z,16.47
2022-08-07T02:04:14.945Z,16.42
2022-08-07T02:06:48.594Z,16.38
2022-08-07T02:09:33.930Z,16.34
2022-08-07T02:12:18.142Z,16.30
2022-08-07T02:14:57.944Z,16.27
2022-08-07T02:17:57.865Z,16.24
2022-08-07T02:20:31.327Z,16.22
2022-08-07T02:23:06.057Z,16.19
2022-08-07T02:26:31.857Z,16.16
2022-08-07T02:28:32.237Z,16.13
2022-08-07T02:31:18.867Z,16.09
2022-08-07T02:34:03.058Z,16.06
2022-08-07T02:36:39.592Z,16.04
2022-08-07T02:39:17.030Z,16.01
2022-08-07T02:42:10.303Z,15.96
2022-08-07T02:44:49.801Z,15.95
2022-08-07T02:47:23.937Z,15.94
2022-08-07T02:50:06.391Z,15.92
2022-08-07T02:52:44.217Z,15.89
2022-08-07T02:55:28.549Z,15.86
2022-08-07T02:58:15.520Z,15.84
2022-08-07T03:00:46.730Z,15.81
2022-08-07T03:03:21.185Z,15.79
2022-08-07T03:05:55.551Z,15.77
2022-08-07T03:08:26.990Z,15.74
2022-08-07T03:11:02.452Z,15.67
2022-08-07T03:13:49.799Z,15.64
2022-08-07T03:16:23.012Z,15.61
2022-08-07T03:18:58.043Z,15.57
2022-08-07T03:21:27.778Z,15.54
2022-08-07T03:24:19.928Z,15.51
2022-08-07T03:26:59.070Z,15.46
2022-08-07T03:29:38.561Z,15.41
2022-08-07T03:32:15.855Z,15.39
2022-08-07T03:35:17.010Z,15.38
2022-08-07T03:37:46.257Z,15.36
2022-08-07T03:40:30.870Z,15.34
2022-08-07T03:43:02.310Z,15.31
2022-08-07T03:45:39.713Z,15.29
2022-08-07T03:48:14.516Z,15.29
2022-08-07T03:50:56.156Z,15.28
2022-08-07T03:54:01.893Z,15.25
2022-08-07T03:56:33.289Z,15.22
2022-08-07T03:59:09.823Z,15.20
2022-08-07T04:01:46.306Z,15.18
2022-08-07T04:04:19.318Z,15.17
2022-08-07T04:06:54.084Z,15.16
2022-08-07T04:09:25.173Z,15.14
2022-08-07T04:12:26.748Z,15.13
2022-08-07T04:14:58.185Z,15.14
2022-08-07T04:18:31.166Z,15.14
2022-08-07T04:20:20.818Z,15.13
2022-08-07T04:22:53.410Z,15.14
2022-08-07T04:25:24.688Z,15.14
2022-08-07T04:28:00.252Z,15.14
2022-08-07T04:30:39.410Z,15.15
2022-08-07T04:33:28.284Z,15.16
2022-08-07T04:35:57.934Z,15.17
2022-08-07T04:38:29.756Z,15.19
2022-08-07T04:40:59.696Z,15.20
2022-08-07T04:44:12.241Z,15.20
2022-08-07T04:46:59.617Z,15.23
2022-08-07T04:49:58.066Z,15.25
2022-08-07T04:52:46.776Z,15.28
2022-08-07T04:58:12.004Z,15.29
2022-08-07T04:58:48.851Z,15.32
2022-08-07T05:01:36.697Z,15.35
2022-08-07T05:04:17.429Z,15.39
2022-08-07T05:06:59.460Z,15.42
2022-08-07T05:09:45.455Z,15.47
2022-08-07T05:12:27.334Z,15.51
2022-08-07T05:15:23.255Z,15.56
2022-08-07T05:18:08.492Z,15.60
2022-08-07T05:20:44.764Z,15.63
2022-08-07T05:23:29.022Z,15.67
2022-08-07T05:26:13.050Z,15.70
2022-08-07T05:28:50.392Z,15.73
2022-08-07T05:31:34.614Z,15.78
2022-08-07T05:34:12.198Z,15.81
2022-08-07T05:36:49.108Z,15.85
2022-08-07T05:40:17.085Z,15.89
2022-08-07T05:42:34.315Z,15.92
2022-08-07T05:45:26.243Z,15.96
2022-08-07T05:48:03.103Z,16.01
2022-08-07T05:50:45.286Z,16.07
2022-08-07T05:54:12.900Z,16.14
2022-08-07T05:56:12.527Z,16.20
2022-08-07T05:58:52.467Z,16.24
2022-08-07T06:01:27.330Z,16.30
2022-08-07T06:04:06.911Z,16.35
2022-08-07T06:06:46.228Z,16.36
2022-08-07T06:09:20.077Z,16.43
2022-08-07T06:11:51.852Z,16.50
2022-08-07T06:14:28.733Z,16.56
2022-08-07T06:17:07.013Z,16.63
2022-08-07T06:19:49.954Z,16.69
2022-08-07T06:22:38.345Z,16.75
2022-08-07T06:25:28.020Z,16.81
2022-08-07T06:28:05.823Z,16.87
2022-08-07T06:30:37.439Z,16.95
2022-08-07T06:33:22.538Z,17.00
2022-08-07T06:36:12.454Z,17.08
2022-08-07T06:38:51.620Z,17.16
2022-08-07T06:42:01.998Z,17.24
2022-08-07T06:44:51.346Z,17.31
2022-08-07T06:47:21.553Z,17.40
2022-08-07T06:49:58.463Z,17.48
2022-08-07T06:52:36.508Z,17.53
2022-08-07T06:55:33.156Z,17.60
2022-08-07T06:58:11.690Z,17.66
2022-08-07T07:00:53.033Z,17.72
2022-08-07T07:03:39.551Z,17.78
2022-08-07T07:06:10.972Z,17.85
2022-08-07T07:08:46.619Z,17.91
2022-08-07T07:12:08.579Z,17.99
2022-08-07T07:14:05.144Z,18.09
2022-08-07T07:16:49.615Z,18.18
2022-08-07T07:19:55.240Z,18.30
2022-08-07T07:22:36.161Z,18.44
2022-08-07T07:26:31.716Z,18.65
2022-08-07T07:28:07.510Z,19.01
2022-08-07T07:31:07.162Z,19.51
2022-08-07T07:33:39.292Z,20.11
2022-08-07T07:36:12.733Z,20.69
2022-08-07T07:38:46.235Z,21.27
2022-08-07T07:41:20.722Z,21.85
2022-08-07T07:44:16.891Z,22.36
2022-08-07T07:46:54.684Z,22.84
2022-08-07T07:50:35.566Z,23.32
2022-08-07T07:52:21.730Z,23.68
2022-08-07T07:54:52.390Z,23.98
2022-08-07T07:57:29.056Z,24.30
2022-08-07T08:00:29.210Z,24.67
2022-08-07T08:03:08.300Z,24.92
2022-08-07T08:05:55.247Z,25.15
2022-08-07T08:08:34.281Z,25.43
2022-08-07T08:11:08.466Z,25.65
2022-08-07T08:13:53.424Z,25.83
2022-08-07T08:16:30.947Z,26.00
2022-08-07T08:19:17.769Z,26.24
2022-08-07T08:22:10.863Z,26.54
2022-08-07T08:25:09.434Z,26.69
2022-08-07T08:27:56.770Z,26.95
2022-08-07T08:30:28.587Z,27.21
2022-08-07T08:33:01.458Z,27.48
2022-08-07T08:35:39.371Z,27.72
2022-08-07T08:38:20.202Z,27.98
2022-08-07T08:40:57.299Z,28.21
2022-08-07T08:43:42.231Z,28.39
2022-08-07T08:46:20.386Z,28.53
2022-08-07T08:49:00.810Z,28.70
2022-08-07T08:52:12.498Z,28.92
2022-08-07T08:54:29.680Z,29.12
2022-08-07T08:57:03.112Z,29.24
2022-08-07T08:59:48.164Z,29.39
2022-08-07T09:02:36.617Z,29.62
2022-08-07T09:05:36.942Z,29.95
2022-08-07T09:08:31.421Z,30.27
2022-08-07T09:11:11.600Z,30.47
2022-08-07T09:13:57.241Z,30.76
2022-08-07T09:16:42.677Z,30.81
2022-08-07T09:19:53.622Z,30.92
2022-08-07T09:24:31.525Z,31.19
2022-08-07T09:25:20.133Z,31.34
2022-08-07T09:28:02.983Z,31.52
2022-08-07T09:30:49.697Z,31.75
2022-08-07T09:33:53.132Z,31.97
2022-08-07T09:36:36.934Z,32.27
2022-08-07T09:39:55.560Z,32.46
2022-08-07T09:42:33.237Z,32.58
2022-08-07T09:47:52.125Z,32.71
2022-08-07T09:48:21.735Z,32.99
2022-08-07T09:52:16.728Z,33.19
2022-08-07T09:54:08.236Z,33.28
2022-08-07T09:57:36.546Z,33.35
2022-08-07T10:00:14.808Z,33.51
2022-08-07T10:04:05.164Z,33.66
2022-08-07T10:06:56.970Z,33.86
2022-08-07T10:10:00.587Z,34.17
2022-08-07T10:12:53.638Z,34.36
2022-08-07T10:16:03.041Z,34.57
2022-08-07T10:19:11.041Z,34.65
2022-08-07T10:22:15.909Z,34.66
2022-08-07T10:25:08.794Z,34.73
2022-08-07T10:28:15.387Z,34.83
2022-08-07T10:31:06.114Z,34.97
2022-08-07T10:34:05.645Z,34.97
2022-08-07T10:37:03.778Z,34.88
2022-08-07T10:39:57.598Z,34.96
2022-08-07T10:42:43.930Z,35.07
2022-08-07T10:45:45.155Z,35.06
2022-08-07T10:48:46.501Z,35.22
2022-08-07T10:51:39.418Z,35.57
2022-08-07T10:54:22.473Z,35.72
2022-08-07T10:57:04.551Z,35.57
2022-08-07T10:59:52.025Z,35.64
2022-08-07T11:02:34.046Z,35.75
2022-08-07T11:05:48.743Z,35.73
2022-08-07T11:08:33.429Z,35.50
2022-08-07T11:11:09.003Z,35.40
2022-08-07T11:14:46.242Z,35.38
2022-08-07T11:16:39.122Z,35.34
2022-08-07T11:19:21.701Z,35.28
2022-08-07T11:22:19.488Z,35.25
2022-08-07T11:25:16.790Z,34.96
2022-08-07T11:28:01.608Z,34.92
2022-08-07T11:30:42.155Z,35.04
2022-08-07T11:33:53.614Z,35.17
2022-08-07T11:36:34.763Z,35.39
2022-08-07T11:39:19.970Z,35.54
2022-08-07T11:42:02.807Z,35.64
2022-08-07T11:44:52.570Z,35.85
2022-08-07T11:47:58.797Z,36.14
2022-08-07T11:50:57.231Z,36.28
2022-08-07T11:53:43.412Z,36.43
2022-08-07T11:56:53.123Z,36.52
2022-08-07T12:00:11.876Z,36.23
2022-08-07T12:03:45.265Z,36.02
2022-08-07T12:06:37.773Z,35.89
2022-08-07T12:09:23.776Z,35.80
2022-08-07T12:12:09.348Z,35.81
2022-08-07T12:14:53.796Z,35.83
2022-08-07T12:17:40.560Z,35.94
2022-08-07T12:20:49.216Z,36.16
2022-08-07T12:24:07.298Z,36.20
2022-08-07T12:26:49.008Z,36.39
2022-08-07T12:29:37.987Z,36.51
2022-08-07T12:32:18.534Z,36.50
2022-08-07T12:34:49.646Z,36.69
2022-08-07T12:37:27.746Z,36.99
2022-08-07T12:40:36.168Z,37.34
2022-08-07T12:43:09.853Z,37.45
2022-08-07T12:45:52.726Z,37.45
2022-08-07T12:48:41.411Z,37.44
2022-08-07T12:51:46.614Z,37.39
2022-08-07T12:54:38.741Z,37.04
2022-08-07T12:57:09.558Z,37.14
2022-08-07T12:59:54.312Z,37.46
2022-08-07T13:02:57.404Z,37.79
2022-08-07T13:06:05.054Z,38.13
2022-08-07T13:08:50.661Z,38.43
2022-08-07T13:12:01.908Z,38.51
2022-08-07T13:14:46.873Z,38.47
2022-08-07T13:17:42.370Z,38.25
2022-08-07T13:20:29.053Z,38.37
2022-08-07T13:24:02.145Z,38.59
2022-08-07T13:26:05.155Z,38.88
2022-08-07T13:28:41.053Z,39.02
2022-08-07T13:31:20.234Z,38.88
2022-08-07T13:34:33.503Z,38.98
2022-08-07T13:36:58.043Z,39.21
2022-08-07T13:40:33.181Z,39.35
2022-08-07T13:42:26.848Z,39.36
2022-08-07T13:45:20.891Z,39.24
2022-08-07T13:48:06.201Z,39.24
2022-08-07T13:50:44.831Z,39.40
2022-08-07T13:54:00.706Z,39.74
2022-08-07T13:56:35.564Z,39.86
2022-08-07T13:59:15.565Z,39.97
2022-08-07T14:02:03.635Z,39.92
2022-08-07T14:04:38.083Z,40.02
2022-08-07T14:07:23.011Z,40.08
2022-08-07T14:10:17.589Z,40.11
2022-08-07T14:12:55.691Z,39.52
2022-08-07T14:15:34.880Z,39.27
2022-08-07T14:18:27.583Z,39.36
2022-08-07T14:21:08.163Z,39.57
2022-08-07T14:24:00.776Z,39.65
2022-08-07T14:30:04.954Z,39.75
2022-08-07T14:32:31.213Z,39.92
2022-08-07T14:35:03.877Z,40.15
2022-08-07T14:37:38.994Z,40.37
2022-08-07T14:40:26.755Z,40.28
2022-08-07T14:43:58.939Z,40.16
2022-08-07T14:45:56.407Z,40.00
2022-08-07T14:48:28.884Z,39.89
2022-08-07T14:51:05.578Z,39.84
2022-08-07T14:56:30.617Z,39.92
2022-08-07T15:01:58.507Z,40.08
2022-08-07T15:04:29.000Z,40.26
2022-08-07T15:06:59.058Z,40.33
2022-08-07T15:12:30.304Z,40.51
2022-08-07T15:15:21.216Z,40.28
2022-08-07T15:18:02.680Z,40.00
2022-08-07T15:20:55.745Z,40.05
2022-08-07T15:25:02.452Z,40.24
2022-08-07T15:26:28.688Z,40.34
2022-08-07T15:30:08.643Z,40.27
2022-08-07T15:32:00.703Z,40.05
2022-08-07T15:34:37.600Z,40.00
2022-08-07T15:37:27.560Z,39.84
2022-08-07T15:40:01.115Z,39.63
2022-08-07T15:42:57.409Z,39.41
2022-08-07T15:48:30.906Z,38.85
2022-08-07T15:51:10.066Z,39.02
2022-08-07T15:53:52.647Z,39.03
2022-08-07T15:56:37.597Z,39.10
2022-08-07T15:59:16.372Z,39.32
2022-08-07T16:02:01.948Z,39.51
2022-08-07T16:04:35.967Z,39.59
2022-08-07T16:08:31.417Z,39.61
2022-08-07T16:10:14.219Z,39.54
2022-08-07T16:13:04.837Z,39.63
2022-08-07T16:15:57.463Z,39.55
2022-08-07T16:18:50.817Z,39.45
2022-08-07T16:22:02.278Z,39.47
2022-08-07T16:24:33.800Z,39.58
2022-08-07T16:27:18.734Z,39.46
2022-08-07T16:30:31.435Z,39.24
2022-08-07T16:34:02.135Z,39.11
2022-08-07T16:36:31.326Z,39.16
2022-08-07T16:39:40.512Z,39.34
2022-08-07T16:42:46.668Z,39.47
2022-08-07T16:46:47.063Z,39.48
2022-08-07T16:50:20.583Z,39.46
2022-08-07T16:52:50.676Z,39.11
2022-08-07T16:55:23.305Z,38.69
2022-08-07T16:58:04.246Z,38.65
2022-08-07T17:00:43.253Z,38.50
2022-08-07T17:03:58.365Z,38.38
2022-08-07T17:06:30.739Z,38.34
2022-08-07T17:10:05.129Z,38.09
2022-08-07T17:12:33.854Z,37.88
2022-08-07T17:15:08.717Z,37.31
2022-08-07T17:18:03.885Z,36.99
2022-08-07T17:20:35.458Z,36.55
2022-08-07T17:23:17.685Z,36.02
2022-08-07T17:26:02.723Z,35.43
2022-08-07T17:28:49.842Z,34.99
2022-08-07T17:31:25.964Z,34.71
2022-08-07T17:34:33.027Z,34.57
2022-08-07T17:37:09.830Z,34.28
2022-08-07T17:40:08.792Z,34.11
2022-08-07T17:42:58.116Z,33.93
2022-08-07T17:45:35.566Z,33.75
2022-08-07T17:48:10.347Z,33.41
2022-08-07T17:50:54.497Z,32.96
2022-08-07T17:54:00.119Z,32.44
2022-08-07T17:56:35.792Z,31.93
2022-08-07T17:59:17.155Z,31.47
2022-08-07T18:01:58.375Z,31.06
2022-08-07T18:04:37.749Z,30.59
2022-08-07T18:07:37.761Z,30.15
2022-08-07T18:10:32.227Z,29.70
2022-08-07T18:13:23.259Z,29.35
2022-08-07T18:16:08.196Z,29.03
2022-08-07T18:21:10.228Z,28.73
2022-08-07T18:21:58.352Z,28.49
2022-08-07T18:24:36.893Z,28.27
2022-08-07T18:27:25.898Z,28.05
2022-08-07T18:30:31.798Z,27.84
2022-08-07T18:33:55.170Z,27.60
2022-08-07T18:36:40.540Z,27.42
2022-08-07T18:40:07.792Z,27.26
2022-08-07T18:42:28.537Z,27.06
2022-08-07T18:45:44.124Z,26.90
2022-08-07T18:48:06.644Z,26.73
2022-08-07T18:51:00.726Z,26.54
2022-08-07T18:53:48.826Z,26.42
2022-08-07T18:56:39.173Z,26.29
2022-08-07T18:59:47.233Z,26.18
2022-08-07T19:02:36.325Z,26.06
2022-08-07T19:05:16.595Z,25.95
2022-08-07T19:08:03.984Z,25.85
2022-08-07T19:10:49.567Z,25.79
2022-08-07T19:13:27.527Z,25.66
2022-08-07T19:17:01.108Z,25.56
2022-08-07T19:19:03.570Z,25.42
2022-08-07T19:21:56.077Z,25.33
2022-08-07T19:24:44.469Z,25.21
2022-08-07T19:28:58.102Z,25.12
2022-08-07T19:31:05.965Z,25.02
2022-08-07T19:33:10.305Z,24.90
2022-08-07T19:35:43.504Z,24.82
2022-08-07T19:38:17.122Z,24.76
2022-08-07T19:40:51.543Z,24.70
2022-08-07T19:43:45.151Z,24.65
2022-08-07T19:46:15.921Z,24.55
2022-08-07T19:48:53.593Z,24.50
2022-08-07T19:51:51.701Z,24.45
2022-08-07T19:54:35.068Z,24.39
2022-08-07T19:58:03.205Z,24.33
2022-08-07T20:00:02.943Z,24.27
2022-08-07T20:02:51.971Z,24.22
2022-08-07T20:05:27.998Z,24.17
2022-08-07T20:08:01.895Z,24.11
2022-08-07T20:10:55.210Z,24.07
2022-08-07T20:13:35.334Z,24.01
2022-08-07T20:16:07.465Z,23.98
2022-08-07T20:18:47.321Z,23.91
2022-08-07T20:21:22.167Z,23.87
2022-08-07T20:24:00.226Z,23.85
2022-08-07T20:26:45.042Z,23.81
2022-08-07T20:29:48.031Z,23.76
2022-08-07T20:32:22.432Z,23.71
2022-08-07T20:34:56.138Z,23.64
2022-08-07T20:37:29.511Z,23.57
2022-08-07T20:40:05.011Z,23.51
2022-08-07T20:42:56.665Z,23.43
2022-08-07T20:46:24.985Z,23.35
2022-08-07T20:48:29.010Z,23.26
2022-08-07T20:51:01.509Z,23.18
2022-08-07T20:54:04.654Z,23.13
2022-08-07T20:56:26.112Z,23.06
2022-08-07T20:58:59.893Z,23.02
2022-08-07T21:01:45.994Z,22.96
2022-08-07T21:04:31.159Z,22.89
2022-08-07T21:07:04.404Z,22.87
2022-08-07T21:09:53.069Z,22.82
2022-08-07T21:12:32.871Z,22.78
2022-08-07T21:15:08.274Z,22.76
2022-08-07T21:18:03.626Z,22.73
2022-08-07T21:20:33.279Z,22.70
2022-08-07T21:23:08.998Z,22.66
2022-08-07T21:26:03.256Z,22.60
2022-08-07T21:28:48.281Z,22.56
2022-08-07T21:32:42.786Z,22.52
2022-08-07T21:34:32.642Z,22.47
2022-08-07T21:37:09.594Z,22.44
2022-08-07T21:39:54.934Z,22.38
2022-08-07T21:42:46.127Z,22.30
2022-08-07T21:46:07.895Z,22.26
2022-08-07T21:48:27.692Z,22.19
2022-08-07T21:51:19.561Z,22.12
2022-08-07T21:53:52.656Z,22.07
2022-08-07T21:56:39.634Z,22.00
2022-08-07T22:00:02.727Z,21.91
2022-08-07T22:02:32.794Z,21.83
2022-08-07T22:05:04.552Z,21.79
2022-08-07T22:07:58.807Z,21.76
2022-08-07T22:10:33.832Z,21.72
2022-08-07T22:13:09.269Z,21.68
2022-08-07T22:16:43.090Z,21.65
2022-08-07T22:18:43.165Z,21.62
2022-08-07T22:21:20.397Z,21.59
2022-08-07T22:23:58.325Z,21.55
2022-08-07T22:26:31.901Z,21.53
2022-08-07T22:29:13.814Z,21.52
2022-08-07T22:32:05.384Z,21.50
2022-08-07T22:34:53.207Z,21.43
2022-08-07T22:38:03.402Z,21.40
2022-08-07T22:40:37.062Z,21.36
2022-08-07T22:43:13.902Z,21.31
2022-08-07T22:46:43.033Z,21.27
2022-08-07T22:49:27.391Z,21.22
2022-08-07T22:52:19.524Z,21.19
2022-08-07T22:55:47.496Z,21.16
2022-08-07T22:59:24.987Z,21.08
2022-08-07T23:02:21.582Z,21.03
2022-08-07T23:06:14.667Z,20.98
2022-08-07T23:08:51.590Z,20.93
2022-08-07T23:11:46.957Z,20.89
2022-08-07T23:14:41.529Z,20.82
2022-08-07T23:17:33.824Z,20.79
2022-08-07T23:20:51.621Z,20.75
2022-08-07T23:24:16.957Z,20.69
2022-08-07T23:27:05.814Z,20.64
2022-08-07T23:30:36.063Z,20.61
2022-08-07T23:34:33.726Z,20.57
2022-08-07T23:36:28.839Z,20.56
2022-08-07T23:39:08.580Z,20.52
2022-08-07T23:42:04.693Z,20.49
2022-08-07T23:45:02.684Z,20.43
2022-08-07T23:47:48.080Z,20.41
2022-08-07T23:50:36.751Z,20.38
2022-08-07T23:53:50.942Z,20.33
2022-08-07T23:56:26.924Z,20.32
2022-08-07T23:59:10.533Z,20.28
